Time;durP1;ratioP1;P1;durP2;ratioP2;P2;SDS_P1;SDS_P2;PMS_P1;PMS_P2;Temp;Humidity;BMP_temperature;BMP_pressure;BME280_temperature;BME280_humidity;BME280_pressure;Samples;Min_cycle;Max_cycle;Signal;HPM_P1;HPM_P2
2023/10/27 00:00:35;;;;;;;14.63;9.50;;;;;;;;;;10033842;28;20049;-75
2023/10/27 00:05:27;;;;;;;11.75;7.70;;;;;;;;;;10031217;28;20069;-75
2023/10/27 00:10:19;;;;;;;19.90;11.50;;;;;;;;;;10029882;28;20045;-75
2023/10/27 00:15:11;;;;;;;33.42;17.25;;;;;;;;;;10031529;28;20038;-75
2023/10/27 00:20:05;;;;;;;28.05;19.20;;;;;;;;;;10030590;28;20133;-76
2023/10/27 00:24:57;;;;;;;40.25;19.73;;;;;;;;;;10031134;28;20476;-76
2023/10/27 00:29:49;;;;;;;34.17;19.75;;;;;;;;;;10030825;28;20087;-76
2023/10/27 00:34:41;;;;;;;34.58;21.10;;;;;;;;;;10039386;28;20061;-76
2023/10/27 00:39:33;;;;;;;29.20;20.63;;;;;;;;;;10028024;28;20100;-76
2023/10/27 00:44:25;;;;;;;31.73;19.15;;;;;;;;;;10030185;28;20138;-76
2023/10/27 00:49:17;;;;;;;33.17;19.13;;;;;;;;;;10030568;28;20464;-75
2023/10/27 00:54:09;;;;;;;33.35;19.60;;;;;;;;;;10045129;28;20049;-76
2023/10/27 00:59:02;;;;;;;33.42;20.77;;;;;;;;;;10027907;28;20437;-76
2023/10/27 01:03:55;;;;;;;40.50;23.65;;;;;;;;;;10026577;28;20050;-76
2023/10/27 01:08:47;;;;;;;38.72;21.75;;;;;;;;;;10030304;28;20038;-76
2023/10/27 01:13:39;;;;;;;36.50;20.60;;;;;;;;;;10044388;28;20049;-75
2023/10/27 01:18:32;;;;;;;32.97;17.90;;;;;;;;;;10028887;28;20103;-75
2023/10/27 01:23:24;;;;;;;24.40;14.27;;;;;;;;;;10029513;28;20047;-75
2023/10/27 01:28:16;;;;;;;29.63;14.80;;;;;;;;;;10027340;28;20042;-76
2023/10/27 01:33:08;;;;;;;27.20;15.48;;;;;;;;;;10030319;28;20463;-76
2023/10/27 01:37:59;;;;;;;32.25;17.90;;;;;;;;;;10028378;28;20124;-76
2023/10/27 01:42:51;;;;;;;42.22;24.55;;;;;;;;;;10027781;28;20505;-76
2023/10/27 01:47:43;;;;;;;27.30;18.15;;;;;;;;;;10027001;28;20408;-76
2023/10/27 01:52:35;;;;;;;32.17;19.95;;;;;;;;;;10026750;28;20041;-76
2023/10/27 01:57:28;;;;;;;27.35;17.55;;;;;;;;;;10028639;28;20042;-73
2023/10/27 02:02:20;;;;;;;28.10;20.17;;;;;;;;;;10027334;28;20641;-76
2023/10/27 02:07:14;;;;;;;25.45;15.40;;;;;;;;;;10024811;28;20108;-76
2023/10/27 02:12:10;;;;;;;22.88;11.48;;;;;;;;;;10028620;28;20042;-76
2023/10/27 02:17:02;;;;;;;19.30;12.27;;;;;;;;;;10042731;28;20125;-76
2023/10/27 02:21:53;;;;;;;30.48;18.17;;;;;;;;;;10027052;28;20049;-76
2023/10/27 02:26:45;;;;;;;30.83;17.08;;;;;;;;;;10026933;28;20535;-76
2023/10/27 02:31:37;;;;;;;26.23;17.38;;;;;;;;;;10025288;28;20049;-76
2023/10/27 02:36:30;;;;;;;30.75;19.35;;;;;;;;;;10044033;28;20103;-76
2023/10/27 02:41:21;;;;;;;27.83;16.55;;;;;;;;;;10025216;28;20046;-76
2023/10/27 02:46:13;;;;;;;24.05;16.08;;;;;;;;;;10026622;28;20121;-76
2023/10/27 02:51:05;;;;;;;34.72;20.30;;;;;;;;;;10025913;28;20357;-76
2023/10/27 02:56:04;;;;;;;47.80;34.38;;;;;;;;;;10026330;28;20133;-76
2023/10/27 03:00:56;;;;;;;21.75;12.43;;;;;;;;;;10026191;28;20061;-76
2023/10/27 03:05:49;;;;;;;15.07;6.90;;;;;;;;;;10032897;28;20125;-76
2023/10/27 03:10:40;;;;;;;23.38;18.92;;;;;;;;;;10031800;28;20439;-76
2023/10/27 03:15:33;;;;;;;21.67;13.57;;;;;;;;;;10033906;28;20298;-76
2023/10/27 03:20:25;;;;;;;30.50;15.00;;;;;;;;;;10031186;28;20042;-77
2023/10/27 03:25:17;;;;;;;32.38;16.85;;;;;;;;;;10035859;28;20073;-74
2023/10/27 03:30:09;;;;;;;44.22;20.63;;;;;;;;;;10031970;28;20042;-75
2023/10/27 03:35:01;;;;;;;22.10;11.35;;;;;;;;;;10032590;28;20046;-74
2023/10/27 03:39:53;;;;;;;24.35;15.15;;;;;;;;;;10031999;28;20464;-74
2023/10/27 03:44:45;;;;;;;46.78;23.25;;;;;;;;;;10030862;28;20108;-75
2023/10/27 03:49:37;;;;;;;29.42;16.85;;;;;;;;;;10032084;28;20092;-75
2023/10/27 03:54:29;;;;;;;17.55;13.15;;;;;;;;;;10030519;28;20077;-74
2023/10/27 03:59:21;;;;;;;29.58;17.13;;;;;;;;;;10032713;28;20128;-74
2023/10/27 04:04:14;;;;;;;67.97;32.95;;;;;;;;;;10030296;28;20052;-74
2023/10/27 04:09:06;;;;;;;53.28;29.77;;;;;;;;;;10031333;28;20058;-74
2023/10/27 04:13:58;;;;;;;66.07;32.17;;;;;;;;;;10029611;28;20054;-75
2023/10/27 04:18:49;;;;;;;66.53;32.00;;;;;;;;;;10035514;28;20133;-74
2023/10/27 04:23:42;;;;;;;58.05;33.00;;;;;;;;;;10031242;28;20253;-75
2023/10/27 04:28:34;;;;;;;54.20;30.75;;;;;;;;;;10031175;28;20053;-74
2023/10/27 04:33:29;;;;;;;40.70;24.80;;;;;;;;;;10030049;28;20049;-73
2023/10/27 04:38:22;;;;;;;34.47;21.30;;;;;;;;;;10031286;28;20458;-72
2023/10/27 04:43:13;;;;;;;28.23;19.02;;;;;;;;;;10045824;28;20041;-75
2023/10/27 04:48:05;;;;;;;26.40;17.00;;;;;;;;;;10066566;28;20129;-74
2023/10/27 04:52:57;;;;;;;23.67;15.80;;;;;;;;;;10067618;28;20356;-74
2023/10/27 04:57:49;;;;;;;27.05;17.23;;;;;;;;;;10066636;28;20050;-74
2023/10/27 05:02:41;;;;;;;27.98;19.52;;;;;;;;;;10061799;28;20037;-73
2023/10/27 05:07:33;;;;;;;27.23;17.50;;;;;;;;;;10066731;28;20095;-74
2023/10/27 05:12:25;;;;;;;25.55;17.90;;;;;;;;;;10065398;28;20091;-74
2023/10/27 05:17:17;;;;;;;33.08;20.20;;;;;;;;;;10064280;28;20136;-73
2023/10/27 05:22:09;;;;;;;26.95;18.05;;;;;;;;;;10064475;28;20068;-74
2023/10/27 05:27:01;;;;;;;25.00;16.10;;;;;;;;;;10065102;28;20144;-73
2023/10/27 05:31:53;;;;;;;26.13;18.15;;;;;;;;;;10065565;28;20046;-73
2023/10/27 05:36:45;;;;;;;24.52;19.42;;;;;;;;;;10065653;28;20059;-72
2023/10/27 05:41:36;;;;;;;17.42;13.13;;;;;;;;;;10065213;28;20075;-72
2023/10/27 05:46:28;;;;;;;22.35;15.85;;;;;;;;;;10064621;28;20061;-71
2023/10/27 05:51:21;;;;;;;18.38;13.52;;;;;;;;;;10065544;28;20050;-73
2023/10/27 05:56:12;;;;;;;16.00;13.38;;;;;;;;;;10064864;28;20423;-73
2023/10/27 06:01:04;;;;;;;20.35;14.02;;;;;;;;;;10064937;28;20065;-73
2023/10/27 06:05:57;;;;;;;19.35;14.35;;;;;;;;;;10056701;28;20421;-74
2023/10/27 06:10:49;;;;;;;14.95;12.70;;;;;;;;;;10062734;28;20045;-73
2023/10/27 06:15:41;;;;;;;20.25;13.15;;;;;;;;;;10048115;28;20050;-71
2023/10/27 06:20:36;;;;;;;20.60;12.50;;;;;;;;;;10061499;28;20534;-73
2023/10/27 06:25:28;;;;;;;16.10;12.25;;;;;;;;;;10063307;28;20041;-73
2023/10/27 06:30:20;;;;;;;16.38;12.10;;;;;;;;;;10052542;28;20438;-73
2023/10/27 06:35:12;;;;;;;17.90;12.05;;;;;;;;;;10049881;28;20053;-73
2023/10/27 06:40:05;;;;;;;17.85;11.15;;;;;;;;;;10061977;28;20395;-71
2023/10/27 06:44:57;;;;;;;15.80;11.93;;;;;;;;;;10063246;28;20084;-72
2023/10/27 06:49:49;;;;;;;16.85;11.85;;;;;;;;;;10062512;28;20468;-71
2023/10/27 06:54:40;;;;;;;14.50;11.70;;;;;;;;;;10061850;28;20475;-75
2023/10/27 06:59:32;;;;;;;18.38;11.38;;;;;;;;;;10061566;28;20052;-74
2023/10/27 07:04:24;;;;;;;16.63;10.40;;;;;;;;;;10059947;28;20483;-74
2023/10/27 07:09:16;;;;;;;14.30;10.82;;;;;;;;;;10025630;28;20046;-76
2023/10/27 07:14:10;;;;;;;15.65;11.45;;;;;;;;;;10024494;28;20472;-75
2023/10/27 07:19:02;;;;;;;14.65;11.57;;;;;;;;;;10024544;28;20121;-78
2023/10/27 07:23:55;;;;;;;15.73;13.20;;;;;;;;;;10025766;28;20161;-77
2023/10/27 07:28:47;;;;;;;15.52;12.43;;;;;;;;;;10026304;28;20085;-77
2023/10/27 07:33:39;;;;;;;17.08;12.55;;;;;;;;;;10024978;28;20050;-77
2023/10/27 07:38:32;;;;;;;18.58;11.40;;;;;;;;;;10027966;28;20038;-77
2023/10/27 07:43:24;;;;;;;20.73;12.75;;;;;;;;;;10026404;28;20042;-78
2023/10/27 07:48:17;;;;;;;14.05;10.63;;;;;;;;;;10026393;28;20053;-77
2023/10/27 07:53:09;;;;;;;12.45;11.10;;;;;;;;;;10033038;28;20100;-78
2023/10/27 07:58:04;;;;;;;14.18;10.98;;;;;;;;;;10032755;28;20053;-78
2023/10/27 08:02:57;;;;;;;18.63;11.98;;;;;;;;;;10034656;28;20472;-78
2023/10/27 08:07:49;;;;;;;14.57;12.68;;;;;;;;;;10032721;28;20075;-77
2023/10/27 08:12:41;;;;;;;15.35;13.25;;;;;;;;;;10032349;28;20751;-78
2023/10/27 08:17:33;;;;;;;21.10;12.85;;;;;;;;;;10032520;28;20136;-77
2023/10/27 08:22:25;;;;;;;18.77;12.00;;;;;;;;;;10031405;28;20100;-77
2023/10/27 08:27:18;;;;;;;16.98;11.25;;;;;;;;;;10031179;28;20054;-78
2023/10/27 08:32:11;;;;;;;15.65;12.10;;;;;;;;;;10033482;28;20380;-78
2023/10/27 08:37:03;;;;;;;20.63;12.07;;;;;;;;;;10033821;28;20140;-78
2023/10/27 08:41:55;;;;;;;16.45;12.10;;;;;;;;;;10030725;28;20049;-77
2023/10/27 08:46:47;;;;;;;15.68;13.60;;;;;;;;;;10031474;28;20376;-78
2023/10/27 08:51:39;;;;;;;17.40;13.70;;;;;;;;;;10030395;28;20045;-79
2023/10/27 08:56:31;;;;;;;13.55;11.13;;;;;;;;;;10045479;28;20439;-78
2023/10/27 09:01:23;;;;;;;14.48;11.60;;;;;;;;;;10053852;28;20038;-78
2023/10/27 09:06:15;;;;;;;16.02;12.57;;;;;;;;;;10032161;28;20050;-79
2023/10/27 09:11:07;;;;;;;15.20;13.00;;;;;;;;;;10030069;28;20046;-79
2023/10/27 09:15:59;;;;;;;15.45;11.52;;;;;;;;;;10031154;28;20136;-78
2023/10/27 09:20:52;;;;;;;13.77;12.30;;;;;;;;;;10036250;28;20384;-79
2023/10/27 09:25:44;;;;;;;13.63;11.05;;;;;;;;;;10048661;28;20051;-79
2023/10/27 09:30:38;;;;;;;14.07;12.50;;;;;;;;;;10026156;28;20073;-78
2023/10/27 09:35:30;;;;;;;14.23;11.70;;;;;;;;;;10034261;28;20376;-77
2023/10/27 09:40:22;;;;;;;18.98;12.18;;;;;;;;;;10036498;28;20476;-78
2023/10/27 09:45:14;;;;;;;15.75;11.90;;;;;;;;;;10030214;28;20037;-77
2023/10/27 09:50:06;;;;;;;16.48;12.68;;;;;;;;;;10028103;28;20056;-78
2023/10/27 09:54:59;;;;;;;15.70;12.38;;;;;;;;;;10026846;28;20061;-80
2023/10/27 10:00:09;;;;;;;15.93;12.60;;;;;;;;;;10031351;28;20044;-79
2023/10/27 10:05:04;;;;;;;17.38;13.15;;;;;;;;;;10026307;28;20042;-79
2023/10/27 10:09:56;;;;;;;17.15;11.68;;;;;;;;;;10026361;28;20049;-79
2023/10/27 10:14:49;;;;;;;14.32;11.73;;;;;;;;;;10027158;28;20486;-80
2023/10/27 10:19:49;;;;;;;14.00;11.57;;;;;;;;;;10025307;28;20076;-79
2023/10/27 10:25:31;;;;;;;14.30;11.20;;;;;;;;;;10037075;28;20790;-79
2023/10/27 10:30:23;;;;;;;13.23;10.68;;;;;;;;;;10036242;28;20053;-79
2023/10/27 10:35:22;;;;;;;13.55;11.80;;;;;;;;;;10051104;28;20042;-80
2023/10/27 10:40:32;;;;;;;14.98;11.52;;;;;;;;;;10042083;28;20068;-79
2023/10/27 10:45:24;;;;;;;15.52;12.32;;;;;;;;;;10038950;28;20041;-80
2023/10/27 10:50:27;;;;;;;15.32;11.55;;;;;;;;;;10057598;28;20041;-78
2023/10/27 10:55:20;;;;;;;14.63;11.95;;;;;;;;;;10040927;28;20150;-80
2023/10/27 11:00:14;;;;;;;11.68;10.27;;;;;;;;;;10038448;28;20069;-80
2023/10/27 11:05:23;;;;;;;14.80;9.38;;;;;;;;;;10050496;28;20555;-78
2023/10/27 11:10:17;;;;;;;11.13;9.73;;;;;;;;;;10058123;28;20128;-80
2023/10/27 11:15:40;;;;;;;16.15;10.15;;;;;;;;;;10030845;28;20107;-80
2023/10/27 11:20:36;;;;;;;15.98;10.45;;;;;;;;;;10035222;28;20053;-80
2023/10/27 11:25:28;;;;;;;11.20;9.13;;;;;;;;;;10038652;28;20420;-79
2023/10/27 11:30:23;;;;;;;4.07;3.53;;;;;;;;;;10056926;28;20409;-80
2023/10/27 11:35:21;;;;;;;11.40;5.95;;;;;;;;;;10033076;28;20042;-80
2023/10/27 11:40:13;;;;;;;9.70;5.83;;;;;;;;;;10036143;28;20065;-78
2023/10/27 11:45:05;;;;;;;7.38;4.35;;;;;;;;;;10048198;28;20046;-80
2023/10/27 11:49:57;;;;;;;8.77;2.70;;;;;;;;;;10041520;28;20646;-80
2023/10/27 11:54:49;;;;;;;4.43;1.67;;;;;;;;;;10045034;28;20342;-78
2023/10/27 11:59:41;;;;;;;3.08;1.52;;;;;;;;;;10044492;28;20375;-80
2023/10/27 12:04:33;;;;;;;3.85;1.60;;;;;;;;;;10044644;28;20053;-80
2023/10/27 12:09:25;;;;;;;4.32;1.83;;;;;;;;;;10033402;28;20088;-81
2023/10/27 12:14:17;;;;;;;9.70;2.47;;;;;;;;;;10044994;28;20487;-78
2023/10/27 12:19:12;;;;;;;10.90;2.00;;;;;;;;;;10040073;28;20727;-80
2023/10/27 12:24:04;;;;;;;4.82;2.53;;;;;;;;;;10039855;28;20160;-80
2023/10/27 12:28:56;;;;;;;6.20;1.70;;;;;;;;;;10058394;28;20046;-81
2023/10/27 12:33:51;;;;;;;4.97;1.60;;;;;;;;;;10064792;28;20041;-79
2023/10/27 12:38:43;;;;;;;7.30;2.38;;;;;;;;;;10035204;28;20096;-81
2023/10/27 12:43:35;;;;;;;4.95;2.40;;;;;;;;;;10032692;28;20038;-80
2023/10/27 12:48:27;;;;;;;4.28;1.70;;;;;;;;;;10032179;28;20041;-81
2023/10/27 12:53:19;;;;;;;3.65;1.60;;;;;;;;;;10062887;28;20038;-81
2023/10/27 12:58:11;;;;;;;14.05;2.65;;;;;;;;;;10066824;28;20361;-80
2023/10/27 13:03:05;;;;;;;5.47;1.40;;;;;;;;;;10066898;28;20048;-81
2023/10/27 13:07:58;;;;;;;3.88;1.40;;;;;;;;;;10046231;28;20045;-79
2023/10/27 13:12:52;;;;;;;5.95;1.45;;;;;;;;;;10040248;28;20045;-81
2023/10/27 13:17:44;;;;;;;5.00;1.40;;;;;;;;;;10049241;28;20038;-80
2023/10/27 13:22:36;;;;;;;7.00;2.10;;;;;;;;;;10041497;28;20050;-81
2023/10/27 13:27:31;;;;;;;6.38;1.80;;;;;;;;;;10029918;28;20480;-80
2023/10/27 13:32:22;;;;;;;3.05;1.30;;;;;;;;;;10043610;28;20073;-80
2023/10/27 13:37:14;;;;;;;6.05;1.73;;;;;;;;;;10039576;28;20046;-80
2023/10/27 13:42:06;;;;;;;4.18;1.90;;;;;;;;;;10027172;28;20041;-80
2023/10/27 13:46:59;;;;;;;4.13;1.63;;;;;;;;;;10062100;28;20332;-81
2023/10/27 13:51:51;;;;;;;6.40;2.08;;;;;;;;;;10059913;28;20087;-81
2023/10/27 13:56:43;;;;;;;7.28;1.92;;;;;;;;;;10062429;28;20136;-81
2023/10/27 14:01:35;;;;;;;6.45;1.65;;;;;;;;;;10063858;28;20041;-80
2023/10/27 14:06:28;;;;;;;6.65;1.95;;;;;;;;;;10064901;28;20086;-81
2023/10/27 14:11:20;;;;;;;5.78;1.95;;;;;;;;;;10064152;28;20045;-80
2023/10/27 14:16:13;;;;;;;7.03;2.40;;;;;;;;;;10064355;28;20045;-80
2023/10/27 14:21:08;;;;;;;4.47;1.25;;;;;;;;;;10063963;28;20041;-80
2023/10/27 14:26:00;;;;;;;8.60;1.38;;;;;;;;;;10063536;28;20109;-80
2023/10/27 14:30:52;;;;;;;5.75;1.80;;;;;;;;;;10064671;28;20041;-81
2023/10/27 14:35:44;;;;;;;3.42;1.10;;;;;;;;;;10064723;28;20056;-80
2023/10/27 14:40:36;;;;;;;6.18;2.03;;;;;;;;;;10064578;28;20037;-79
2023/10/27 14:45:28;;;;;;;4.60;1.58;;;;;;;;;;10063722;28;20533;-78
2023/10/27 14:50:20;;;;;;;9.35;2.20;;;;;;;;;;10041928;28;20472;-80
2023/10/27 14:55:14;;;;;;;3.63;1.35;;;;;;;;;;10029663;28;20104;-80
2023/10/27 15:00:10;;;;;;;3.42;1.63;;;;;;;;;;10030508;28;20053;-80
2023/10/27 15:05:05;;;;;;;7.03;1.65;;;;;;;;;;10053009;28;20061;-80
2023/10/27 15:09:57;;;;;;;20.23;2.47;;;;;;;;;;10043829;28;20050;-81
2023/10/27 15:14:50;;;;;;;5.97;2.50;;;;;;;;;;10050000;28;20520;-81
2023/10/27 15:19:42;;;;;;;3.92;1.63;;;;;;;;;;10045795;28;20044;-80
2023/10/27 15:24:34;;;;;;;7.18;2.60;;;;;;;;;;10048809;28;20041;-78
2023/10/27 15:29:26;;;;;;;42.17;4.20;;;;;;;;;;10042245;28;20438;-78
2023/10/27 15:34:18;;;;;;;5.40;1.70;;;;;;;;;;10033916;28;20056;-79
2023/10/27 15:39:11;;;;;;;8.55;2.45;;;;;;;;;;10045524;28;20075;-78
2023/10/27 15:44:03;;;;;;;10.60;2.13;;;;;;;;;;10048874;28;20121;-78
2023/10/27 15:48:55;;;;;;;8.88;2.63;;;;;;;;;;10047744;28;20046;-78
2023/10/27 15:53:48;;;;;;;5.07;2.08;;;;;;;;;;10047734;28;20034;-78
2023/10/27 15:58:40;;;;;;;6.30;1.75;;;;;;;;;;10033475;28;20046;-78
2023/10/27 16:03:32;;;;;;;6.80;2.15;;;;;;;;;;10033753;28;20060;-77
2023/10/27 16:08:24;;;;;;;6.82;1.88;;;;;;;;;;10032568;28;20399;-78
2023/10/27 16:13:16;;;;;;;8.48;1.90;;;;;;;;;;10030980;28;20361;-78
2023/10/27 16:18:09;;;;;;;7.57;2.70;;;;;;;;;;10032079;28;20081;-76
2023/10/27 16:23:03;;;;;;;8.85;2.03;;;;;;;;;;10031328;28;20045;-78
2023/10/27 16:27:55;;;;;;;6.70;2.05;;;;;;;;;;10031422;28;20104;-77
2023/10/27 16:32:47;;;;;;;3.47;1.73;;;;;;;;;;10036553;28;20050;-78
2023/10/27 16:37:39;;;;;;;5.63;1.80;;;;;;;;;;10030945;28;20472;-78
2023/10/27 16:42:31;;;;;;;5.55;3.42;;;;;;;;;;10030616;28;20038;-78
2023/10/27 16:47:23;;;;;;;5.88;1.77;;;;;;;;;;10029982;28;20054;-80
2023/10/27 16:52:15;;;;;;;9.80;2.80;;;;;;;;;;10029721;28;20052;-79
2023/10/27 16:57:07;;;;;;;6.38;1.75;;;;;;;;;;10030369;28;20146;-80
2023/10/27 17:01:59;;;;;;;8.85;2.08;;;;;;;;;;10033550;28;20073;-78
2023/10/27 17:06:51;;;;;;;5.85;1.80;;;;;;;;;;10029794;28;20145;-80
2023/10/27 17:11:43;;;;;;;8.45;1.73;;;;;;;;;;10030787;28;20078;-78
2023/10/27 17:16:35;;;;;;;6.38;2.00;;;;;;;;;;10029885;28;20103;-80
2023/10/27 17:21:28;;;;;;;7.18;2.67;;;;;;;;;;10028457;28;20107;-80
2023/10/27 17:26:21;;;;;;;4.25;1.88;;;;;;;;;;10028232;28;20076;-80
2023/10/27 17:31:13;;;;;;;5.35;1.95;;;;;;;;;;10031838;28;20045;-80
2023/10/27 17:36:09;;;;;;;3.70;1.65;;;;;;;;;;10037395;28;20111;-79
2023/10/27 17:41:06;;;;;;;7.57;1.92;;;;;;;;;;10029339;28;20451;-80
2023/10/27 17:46:00;;;;;;;;;;;;;;;;;;10030132;28;20046;-78
2023/10/27 17:50:59;;;;;;;4.70;1.63;;;;;;;;;;10044100;28;20339;-80
2023/10/27 17:55:51;;;;;;;6.32;2.10;;;;;;;;;;10027890;28;21566;-80
2023/10/27 18:00:43;;;;;;;9.73;3.65;;;;;;;;;;10036737;28;20046;-79
2023/10/27 18:05:35;;;;;;;6.93;2.00;;;;;;;;;;10026651;28;20141;-80
2023/10/27 18:10:28;;;;;;;7.40;2.00;;;;;;;;;;10026272;28;20062;-81
2023/10/27 18:15:20;;;;;;;8.27;2.40;;;;;;;;;;10026473;28;20428;-82
2023/10/27 18:20:12;;;;;;;5.75;2.05;;;;;;;;;;10024650;28;20091;-82
2023/10/27 18:25:05;;;;;;;6.20;2.05;;;;;;;;;;10021629;28;20559;-83
2023/10/27 18:29:57;;;;;;;5.20;2.45;;;;;;;;;;10022372;28;20037;-83
2023/10/27 18:34:51;;;;;;;8.63;2.47;;;;;;;;;;10021388;28;20050;-81
2023/10/27 18:39:43;;;;;;;8.35;2.20;;;;;;;;;;10024685;28;20053;-83
2023/10/27 18:44:39;;;;;;;13.20;4.93;;;;;;;;;;10037636;28;20033;-81
2023/10/27 18:49:32;;;;;;;12.43;7.18;;;;;;;;;;10062751;28;20044;-78
2023/10/27 18:54:23;;;;;;;10.90;3.80;;;;;;;;;;10061897;28;20423;-81
2023/10/27 18:59:20;;;;;;;13.27;5.10;;;;;;;;;;10061857;28;20501;-78
2023/10/27 19:04:12;;;;;;;9.10;2.53;;;;;;;;;;10062063;28;20085;-80
2023/10/27 19:09:06;;;;;;;6.47;3.25;;;;;;;;;;10037324;28;20090;-81
2023/10/27 19:13:57;;;;;;;5.28;2.00;;;;;;;;;;10025027;28;20129;-79
2023/10/27 19:18:49;;;;;;;9.60;2.70;;;;;;;;;;10024548;28;20081;-79
2023/10/27 19:23:44;;;;;;;6.72;2.80;;;;;;;;;;10024698;28;21028;-79
2023/10/27 19:28:36;;;;;;;7.55;2.15;;;;;;;;;;10025298;28;20069;-77
2023/10/27 19:33:27;;;;;;;12.00;2.40;;;;;;;;;;10025276;28;20048;-78
2023/10/27 19:38:19;;;;;;;7.78;2.45;;;;;;;;;;10024300;28;20460;-79
2023/10/27 19:43:12;;;;;;;6.65;2.15;;;;;;;;;;10023742;28;20144;-78
2023/10/27 19:48:05;;;;;;;5.57;2.50;;;;;;;;;;10030594;28;20049;-78
2023/10/27 19:52:57;;;;;;;13.50;2.17;;;;;;;;;;10031126;28;20042;-78
2023/10/27 19:57:50;;;;;;;15.18;3.08;;;;;;;;;;10031919;28;20088;-80
2023/10/27 20:02:42;;;;;;;10.00;2.00;;;;;;;;;;10046917;28;20053;-78
2023/10/27 20:07:33;;;;;;;7.40;2.00;;;;;;;;;;10030493;28;20050;-77
2023/10/27 20:12:25;;;;;;;5.35;1.70;;;;;;;;;;10046528;28;20052;-77
2023/10/27 20:17:17;;;;;;;5.25;2.00;;;;;;;;;;10066252;28;20049;-78
2023/10/27 20:22:09;;;;;;;10.55;3.50;;;;;;;;;;10066275;28;20490;-79
2023/10/27 20:27:01;;;;;;;52.05;11.95;;;;;;;;;;10066707;28;20126;-78
2023/10/27 20:31:55;;;;;;;6.90;2.45;;;;;;;;;;10064532;28;20415;-79
2023/10/27 20:36:47;;;;;;;9.75;2.53;;;;;;;;;;10042357;28;20050;-78
2023/10/27 20:41:39;;;;;;;8.40;2.20;;;;;;;;;;10047528;28;20254;-79
2023/10/27 20:46:31;;;;;;;160.85;30.35;;;;;;;;;;10064536;28;20399;-79
2023/10/27 20:51:23;;;;;;;8.60;2.58;;;;;;;;;;10037319;28;20130;-79
2023/10/27 20:56:15;;;;;;;6.30;2.03;;;;;;;;;;10050931;28;20048;-80
2023/10/27 21:01:07;;;;;;;9.52;2.13;;;;;;;;;;10058900;28;20084;-78
2023/10/27 21:06:05;;;;;;;7.63;1.73;;;;;;;;;;10065581;28;20053;-80
2023/10/27 21:10:58;;;;;;;18.08;2.80;;;;;;;;;;10065295;28;20037;-78
2023/10/27 21:15:51;;;;;;;4.88;1.55;;;;;;;;;;10064824;28;20049;-80
2023/10/27 21:20:43;;;;;;;10.45;2.33;;;;;;;;;;10065194;28;20107;-80
2023/10/27 21:25:35;;;;;;;7.10;1.63;;;;;;;;;;10066170;28;20096;-79
2023/10/27 21:30:27;;;;;;;8.30;2.38;;;;;;;;;;10041719;28;20479;-81
2023/10/27 21:35:19;;;;;;;10.80;1.85;;;;;;;;;;10028282;28;20152;-80
2023/10/27 21:40:12;;;;;;;7.03;2.80;;;;;;;;;;10025842;28;20464;-80
2023/10/27 21:45:04;;;;;;;7.72;2.50;;;;;;;;;;10026445;28;20134;-80
2023/10/27 21:49:56;;;;;;;56.20;19.92;;;;;;;;;;10026873;28;20089;-79
2023/10/27 21:54:48;;;;;;;4.38;1.95;;;;;;;;;;10033052;28;20037;-80
2023/10/27 21:59:40;;;;;;;4.82;1.80;;;;;;;;;;10036461;28;20042;-80
2023/10/27 22:04:33;;;;;;;4.07;1.70;;;;;;;;;;10062905;28;20050;-80
2023/10/27 22:09:28;;;;;;;7.63;1.80;;;;;;;;;;10049599;28;20126;-82
2023/10/27 22:14:20;;;;;;;52.45;11.07;;;;;;;;;;10059926;28;20415;-82
2023/10/27 22:19:13;;;;;;;5.45;1.80;;;;;;;;;;10047405;28;20057;-83
2023/10/27 22:24:05;;;;;;;7.00;1.83;;;;;;;;;;10050077;28;20070;-81
2023/10/27 22:28:57;;;;;;;7.43;1.60;;;;;;;;;;10039973;28;20468;-83
2023/10/27 22:33:49;;;;;;;7.65;1.95;;;;;;;;;;10059530;28;20064;-81
2023/10/27 22:38:41;;;;;;;6.88;2.33;;;;;;;;;;10054101;28;20504;-83
2023/10/27 22:43:33;;;;;;;6.15;1.85;;;;;;;;;;10050610;28;20030;-81
2023/10/27 22:48:24;;;;;;;9.00;3.95;;;;;;;;;;10059967;28;20042;-84
2023/10/27 22:53:16;;;;;;;3.13;1.77;;;;;;;;;;10056108;28;20067;-83
2023/10/27 22:58:08;;;;;;;8.40;1.92;;;;;;;;;;10054108;28;20068;-85
2023/10/27 23:03:00;;;;;;;5.10;1.63;;;;;;;;;;10044724;28;20050;-81
2023/10/27 23:07:53;;;;;;;10.10;1.75;;;;;;;;;;10025519;28;20643;-81
2023/10/27 23:12:45;;;;;;;6.43;1.65;;;;;;;;;;10025526;28;20092;-79
2023/10/27 23:17:37;;;;;;;5.78;1.70;;;;;;;;;;10024467;28;20111;-83
2023/10/27 23:22:29;;;;;;;4.68;1.40;;;;;;;;;;10031376;28;20104;-83
2023/10/27 23:27:22;;;;;;;7.47;2.00;;;;;;;;;;10032354;28;20046;-83
2023/10/27 23:32:15;;;;;;;4.50;1.65;;;;;;;;;;10032150;28;20353;-82
2023/10/27 23:37:08;;;;;;;5.38;1.85;;;;;;;;;;10032725;28;20514;-83
2023/10/27 23:42:00;;;;;;;3.97;1.50;;;;;;;;;;10047024;28;20112;-83
2023/10/27 23:46:52;;;;;;;2.30;1.27;;;;;;;;;;10031655;28;20049;-81
2023/10/27 23:51:44;;;;;;;8.02;1.52;;;;;;;;;;10035881;28;20041;-83
2023/10/27 23:56:36;;;;;;;11.38;1.52;;;;;;;;;;10031236;28;20054;-82
